createdAt,value
2022-10-03T00:02:12.955Z,8.17
2022-10-03T00:04:57.104Z,8.19
2022-10-03T00:07:36.098Z,8.25
2022-10-03T00:10:22.023Z,8.28
2022-10-03T00:13:06.776Z,8.29
2022-10-03T00:15:49.995Z,8.29
2022-10-03T00:18:34.465Z,8.32
2022-10-03T00:21:20.281Z,8.31
2022-10-03T00:24:02.288Z,8.31
2022-10-03T00:26:46.750Z,8.28
2022-10-03T00:29:43.453Z,8.31
2022-10-03T00:32:33.021Z,8.37
2022-10-03T00:35:12.264Z,8.37
2022-10-03T00:38:01.107Z,8.35
2022-10-03T00:40:49.735Z,8.40
2022-10-03T00:43:44.356Z,8.40
2022-10-03T00:46:38.682Z,8.38
2022-10-03T00:49:17.693Z,8.43
2022-10-03T00:51:56.430Z,8.43
2022-10-03T00:54:47.957Z,8.41
2022-10-03T00:57:22.001Z,8.48
2022-10-03T00:59:48.708Z,8.46
2022-10-03T01:02:30.381Z,8.52
2022-10-03T01:05:45.390Z,8.56
2022-10-03T01:08:37.993Z,8.49
2022-10-03T01:11:49.532Z,8.49
2022-10-03T01:14:32.373Z,8.51
2022-10-03T01:17:10.908Z,8.54
2022-10-03T01:19:56.144Z,8.51
2022-10-03T01:22:47.508Z,8.52
2022-10-03T01:25:17.050Z,8.56
2022-10-03T01:28:37.533Z,8.55
2022-10-03T01:31:10.287Z,8.49
2022-10-03T01:33:42.160Z,8.54
2022-10-03T01:36:27.451Z,8.44
2022-10-03T01:39:06.236Z,8.48
2022-10-03T01:41:48.175Z,8.51
2022-10-03T01:44:30.448Z,8.47
2022-10-03T01:47:06.294Z,8.44
2022-10-03T01:49:35.971Z,8.45
2022-10-03T01:52:11.471Z,8.45
2022-10-03T01:54:44.158Z,8.44
2022-10-03T01:57:25.916Z,8.48
2022-10-03T02:00:11.141Z,8.39
2022-10-03T02:02:45.592Z,8.44
2022-10-03T02:05:17.778Z,8.41
2022-10-03T02:08:05.871Z,8.43
2022-10-03T02:10:48.255Z,8.37
2022-10-03T02:13:23.336Z,8.32
2022-10-03T02:15:54.548Z,8.37
2022-10-03T02:18:48.883Z,8.35
2022-10-03T02:21:27.072Z,8.31
2022-10-03T02:24:29.063Z,8.32
2022-10-03T02:27:01.925Z,8.35
2022-10-03T02:30:00.613Z,8.34
2022-10-03T02:32:46.824Z,8.40
2022-10-03T02:35:39.552Z,8.36
2022-10-03T02:38:26.558Z,8.36
2022-10-03T02:41:02.712Z,8.38
2022-10-03T02:44:27.669Z,8.33
2022-10-03T02:47:19.455Z,8.35
2022-10-03T02:50:04.700Z,8.34
2022-10-03T02:52:49.506Z,8.34
2022-10-03T02:55:36.539Z,8.35
2022-10-03T02:58:06.040Z,8.34
2022-10-03T03:00:47.341Z,8.36
2022-10-03T03:03:42.016Z,8.37
2022-10-03T03:06:29.320Z,8.37
2022-10-03T03:09:23.497Z,8.41
2022-10-03T03:12:08.200Z,8.45
2022-10-03T03:15:10.317Z,8.43
2022-10-03T03:17:36.985Z,8.43
2022-10-03T03:20:41.588Z,8.46
2022-10-03T03:23:31.544Z,8.42
2022-10-03T03:26:19.848Z,8.45
2022-10-03T03:29:20.794Z,8.48
2022-10-03T03:32:21.391Z,8.48
2022-10-03T03:35:06.963Z,8.46
2022-10-03T03:37:45.977Z,8.50
2022-10-03T03:40:51.031Z,8.49
2022-10-03T03:43:23.745Z,8.52
2022-10-03T03:46:06.896Z,8.57
2022-10-03T03:49:01.746Z,8.63
2022-10-03T03:52:03.721Z,8.69
2022-10-03T03:54:55.162Z,8.70
2022-10-03T03:57:34.063Z,8.73
2022-10-03T04:00:03.872Z,8.77
2022-10-03T04:02:38.354Z,8.81
2022-10-03T04:05:38.169Z,8.87
2022-10-03T04:08:23.432Z,8.90
2022-10-03T04:11:08.154Z,8.93
2022-10-03T04:13:56.518Z,8.97
2022-10-03T04:17:20.544Z,8.99
2022-10-03T04:20:14.839Z,9.03
2022-10-03T04:23:00.537Z,9.08
2022-10-03T04:26:08.289Z,9.12
2022-10-03T04:29:17.194Z,9.14
2022-10-03T04:31:49.828Z,9.18
2022-10-03T04:34:25.868Z,9.22
2022-10-03T04:37:06.890Z,9.29
2022-10-03T04:40:07.106Z,9.36
2022-10-03T04:43:10.479Z,9.43
2022-10-03T04:45:40.231Z,9.49
2022-10-03T04:48:16.719Z,9.59
2022-10-03T04:51:31.288Z,9.74
2022-10-03T04:54:38.811Z,9.86
2022-10-03T04:57:22.933Z,10.00
2022-10-03T04:59:59.258Z,10.10
2022-10-03T05:02:45.922Z,10.24
2022-10-03T05:05:24.852Z,10.37
2022-10-03T05:07:51.483Z,10.48
2022-10-03T05:10:24.344Z,10.59
2022-10-03T05:12:59.778Z,10.75
2022-10-03T05:15:33.890Z,10.77
2022-10-03T05:18:28.841Z,10.91
2022-10-03T05:21:11.016Z,10.96
2022-10-03T05:24:03.396Z,11.06
2022-10-03T05:26:46.076Z,11.07
2022-10-03T05:29:37.601Z,11.15
2022-10-03T05:32:22.784Z,11.17
2022-10-03T05:35:21.619Z,11.09
2022-10-03T05:38:06.104Z,11.08
2022-10-03T05:40:36.937Z,11.11
2022-10-03T05:43:11.326Z,11.16
2022-10-03T05:45:43.815Z,11.16
2022-10-03T05:48:28.938Z,11.21
2022-10-03T05:51:13.226Z,11.33
2022-10-03T05:53:42.668Z,11.48
2022-10-03T05:56:28.397Z,11.81
2022-10-03T05:59:07.352Z,12.06
2022-10-03T06:02:33.024Z,12.25
2022-10-03T06:05:32.995Z,12.24
2022-10-03T06:08:15.950Z,12.30
2022-10-03T06:11:01.291Z,12.34
2022-10-03T06:13:55.741Z,12.35
2022-10-03T06:16:30.948Z,12.41
2022-10-03T06:19:06.895Z,12.45
2022-10-03T06:22:00.797Z,12.51
2022-10-03T06:24:49.416Z,12.47
2022-10-03T06:27:54.295Z,12.51
2022-10-03T06:30:22.473Z,12.45
2022-10-03T06:33:07.256Z,12.53
2022-10-03T06:35:52.560Z,12.68
2022-10-03T06:38:37.671Z,12.51
2022-10-03T06:41:48.973Z,12.67
2022-10-03T06:44:41.223Z,12.50
2022-10-03T06:47:27.168Z,12.63
2022-10-03T06:50:27.496Z,12.71
2022-10-03T06:53:13.127Z,12.68
2022-10-03T06:56:14.888Z,12.73
2022-10-03T06:58:47.648Z,12.74
2022-10-03T07:01:44.608Z,12.72
2022-10-03T07:04:48.845Z,12.67
2022-10-03T07:07:21.866Z,12.83
2022-10-03T07:10:10.560Z,12.84
2022-10-03T07:13:10.807Z,12.90
2022-10-03T07:18:55.064Z,12.98
2022-10-03T07:21:31.322Z,13.07
2022-10-03T07:24:25.849Z,13.22
2022-10-03T07:27:28.124Z,13.54
2022-10-03T07:30:17.271Z,13.99
2022-10-03T07:33:11.663Z,14.45
2022-10-03T07:36:00.708Z,14.91
2022-10-03T07:38:58.075Z,15.39
2022-10-03T07:41:31.737Z,16.17
2022-10-03T07:44:15.799Z,16.98
2022-10-03T07:46:57.523Z,17.34
2022-10-03T07:49:42.919Z,17.46
2022-10-03T07:52:47.400Z,17.74
2022-10-03T07:55:28.508Z,17.92
2022-10-03T07:58:13.590Z,17.82
2022-10-03T08:00:58.924Z,17.04
2022-10-03T08:03:28.780Z,16.79
2022-10-03T08:06:33.818Z,16.41
2022-10-03T08:09:28.308Z,15.98
2022-10-03T08:12:28.898Z,16.11
2022-10-03T08:15:22.367Z,15.81
2022-10-03T08:17:55.379Z,15.46
2022-10-03T08:20:34.252Z,15.37
2022-10-03T08:23:24.277Z,15.31
2022-10-03T08:26:36.097Z,14.92
2022-10-03T08:29:30.163Z,14.57
2022-10-03T08:32:21.391Z,14.37
2022-10-03T08:35:06.624Z,14.21
2022-10-03T08:37:45.242Z,14.24
2022-10-03T08:40:34.118Z,14.24
2022-10-03T08:43:00.794Z,14.32
2022-10-03T08:45:33.420Z,14.44
2022-10-03T08:48:09.434Z,14.58
2022-10-03T08:50:59.512Z,14.48
2022-10-03T08:53:46.459Z,14.50
2022-10-03T08:56:33.200Z,14.52
2022-10-03T08:59:24.740Z,14.45
2022-10-03T09:02:14.987Z,14.51
2022-10-03T09:05:00.228Z,14.36
2022-10-03T09:19:13.070Z,15.33
2022-10-03T09:21:45.847Z,15.28
2022-10-03T09:24:31.386Z,15.60
2022-10-03T09:27:24.166Z,15.86
2022-10-03T09:30:03.143Z,15.80
2022-10-03T09:32:47.431Z,15.70
2022-10-03T09:35:52.044Z,15.86
2022-10-03T09:38:37.085Z,16.11
2022-10-03T09:41:22.553Z,16.49
2022-10-03T09:44:08.134Z,16.63
2022-10-03T09:47:13.646Z,16.59
2022-10-03T09:50:09.407Z,16.46
2022-10-03T09:52:51.343Z,16.17
2022-10-03T09:55:48.849Z,16.21
2022-10-03T09:58:41.040Z,16.26
2022-10-03T10:01:31.106Z,15.94
2022-10-03T10:04:32.658Z,15.80
2022-10-03T10:07:29.293Z,15.62
2022-10-03T10:10:33.393Z,15.58
2022-10-03T10:13:12.059Z,15.16
2022-10-03T10:16:01.165Z,15.23
2022-10-03T10:18:36.624Z,15.28
2022-10-03T10:21:46.616Z,15.32
2022-10-03T10:24:36.512Z,15.29
2022-10-03T10:27:21.677Z,15.28
2022-10-03T10:30:09.997Z,15.35
2022-10-03T10:33:10.468Z,15.39
2022-10-03T10:36:14.704Z,15.43
2022-10-03T10:38:53.896Z,15.59
2022-10-03T10:42:08.300Z,15.74
2022-10-03T10:44:53.938Z,16.28
2022-10-03T10:47:20.655Z,16.45
2022-10-03T10:49:53.510Z,16.65
2022-10-03T10:52:38.528Z,16.51
2022-10-03T10:55:46.162Z,16.43
2022-10-03T10:58:50.460Z,16.13
2022-10-03T11:01:46.114Z,16.07
2022-10-03T11:04:31.219Z,15.99
2022-10-03T11:07:53.833Z,16.35
2022-10-03T11:10:39.277Z,16.55
2022-10-03T11:13:43.562Z,16.54
2022-10-03T11:16:25.505Z,16.74
2022-10-03T11:19:13.398Z,16.69
2022-10-03T11:21:52.236Z,16.87
2022-10-03T11:24:37.482Z,16.85
2022-10-03T11:27:16.567Z,16.85
2022-10-03T11:30:14.247Z,16.74
2022-10-03T11:33:03.023Z,16.91
2022-10-03T11:35:52.269Z,17.03
2022-10-03T11:38:34.983Z,17.34
2022-10-03T11:41:13.732Z,17.37
2022-10-03T11:44:31.229Z,17.24
2022-10-03T11:47:26.017Z,17.41
2022-10-03T11:50:19.025Z,17.48
2022-10-03T11:53:19.709Z,17.25
2022-10-03T11:56:05.006Z,17.26
2022-10-03T11:59:14.042Z,17.29
2022-10-03T12:01:44.026Z,16.99
2022-10-03T12:04:34.662Z,16.57
2022-10-03T12:07:39.574Z,15.94
2022-10-03T12:10:29.123Z,15.08
2022-10-03T12:12:57.873Z,14.58
2022-10-03T12:15:30.436Z,14.36
2022-10-03T12:18:12.165Z,14.43
2022-10-03T12:20:48.868Z,14.55
2022-10-03T12:23:18.484Z,14.61
2022-10-03T12:25:49.312Z,14.66
2022-10-03T12:28:41.528Z,14.64
2022-10-03T12:31:38.258Z,14.58
2022-10-03T12:34:20.277Z,14.46
2022-10-03T12:37:10.924Z,14.54
2022-10-03T12:40:04.240Z,14.65
2022-10-03T12:42:37.467Z,14.78
2022-10-03T12:45:22.201Z,14.84
2022-10-03T12:47:55.728Z,14.66
2022-10-03T12:50:25.745Z,14.29
2022-10-03T12:53:24.134Z,13.92
2022-10-03T12:56:07.378Z,13.81
2022-10-03T12:58:50.721Z,13.48
2022-10-03T13:01:44.153Z,13.56
2022-10-03T13:04:34.742Z,13.62
2022-10-03T13:07:20.372Z,13.81
2022-10-03T13:09:59.145Z,13.99
2022-10-03T13:12:39.271Z,14.13
2022-10-03T13:15:33.952Z,14.19
2022-10-03T13:18:20.751Z,14.10
2022-10-03T13:21:21.371Z,13.95
2022-10-03T13:24:09.552Z,13.90
2022-10-03T13:26:50.946Z,13.91
2022-10-03T13:29:39.001Z,13.96
2022-10-03T13:32:18.074Z,13.95
2022-10-03T13:35:38.685Z,13.92
2022-10-03T13:38:06.250Z,14.03
2022-10-03T13:40:37.747Z,13.94
2022-10-03T13:43:13.727Z,13.99
2022-10-03T13:45:44.550Z,14.04
2022-10-03T13:48:21.160Z,14.08
2022-10-03T13:50:58.651Z,14.29
2022-10-03T13:53:58.876Z,14.33
2022-10-03T13:56:59.763Z,14.39
2022-10-03T13:59:26.498Z,14.46
2022-10-03T14:02:22.469Z,14.48
2022-10-03T14:04:56.950Z,14.53
2022-10-03T14:07:29.591Z,14.47
2022-10-03T14:10:22.186Z,14.41
2022-10-03T14:13:10.741Z,14.39
2022-10-03T14:15:50.038Z,14.27
2022-10-03T14:18:16.738Z,14.24
2022-10-03T14:20:56.446Z,14.20
2022-10-03T14:23:35.392Z,14.19
2022-10-03T14:26:12.076Z,14.19
2022-10-03T14:28:41.888Z,14.13
2022-10-03T14:31:17.738Z,14.03
2022-10-03T14:33:59.149Z,14.07
2022-10-03T14:36:49.965Z,13.85
2022-10-03T14:39:36.426Z,13.70
2022-10-03T14:42:18.494Z,13.58
2022-10-03T14:44:58.516Z,13.57
2022-10-03T14:47:27.202Z,13.43
2022-10-03T14:49:59.455Z,13.41
2022-10-03T14:52:29.384Z,13.34
2022-10-03T14:55:00.178Z,13.22
2022-10-03T14:57:59.051Z,13.29
2022-10-03T15:00:51.174Z,13.15
2022-10-03T15:03:17.956Z,13.04
2022-10-03T15:05:56.774Z,13.04
2022-10-03T15:08:31.275Z,13.03
2022-10-03T15:10:59.140Z,13.00
2022-10-03T15:13:29.048Z,12.99
2022-10-03T15:15:56.866Z,12.89
2022-10-03T15:18:25.104Z,12.80
2022-10-03T15:20:57.529Z,12.78
2022-10-03T15:23:34.010Z,12.81
2022-10-03T15:26:02.088Z,12.74
2022-10-03T15:28:42.741Z,12.71
2022-10-03T15:31:30.205Z,12.71
2022-10-03T15:33:59.208Z,12.77
2022-10-03T15:36:30.852Z,12.74
2022-10-03T15:39:06.570Z,12.82
2022-10-03T15:41:48.289Z,12.85
2022-10-03T15:44:19.569Z,12.85
2022-10-03T15:46:56.061Z,12.69
2022-10-03T15:49:41.149Z,12.35
2022-10-03T15:52:32.753Z,12.15
2022-10-03T15:55:11.956Z,11.90
2022-10-03T15:57:47.132Z,11.76
2022-10-03T16:00:36.148Z,11.65
2022-10-03T16:03:22.834Z,11.57
2022-10-03T16:06:08.782Z,11.43
2022-10-03T16:09:02.261Z,11.33
2022-10-03T16:11:40.147Z,11.26
2022-10-03T16:14:25.678Z,11.13
2022-10-03T16:16:56.735Z,11.01
2022-10-03T16:19:31.673Z,10.93
2022-10-03T16:22:13.778Z,10.86
2022-10-03T16:24:52.984Z,10.79
2022-10-03T16:27:26.245Z,10.73
2022-10-03T16:29:59.158Z,10.73
2022-10-03T16:32:28.362Z,10.67
2022-10-03T16:35:00.809Z,10.64
2022-10-03T16:37:30.007Z,10.63
2022-10-03T16:40:03.055Z,10.69
2022-10-03T16:42:42.054Z,10.60
2022-10-03T16:45:29.194Z,10.59
2022-10-03T16:48:18.389Z,10.59
2022-10-03T16:50:52.996Z,10.56
2022-10-03T16:53:22.367Z,10.60
2022-10-03T16:55:57.880Z,10.54
2022-10-03T16:58:30.963Z,10.60
2022-10-03T17:01:25.389Z,10.64
2022-10-03T17:04:10.881Z,10.69
2022-10-03T17:06:39.947Z,10.73
2022-10-03T17:09:46.184Z,10.79
2022-10-03T17:12:18.096Z,10.78
2022-10-03T17:14:45.375Z,10.78
2022-10-03T17:17:32.496Z,10.79
2022-10-03T17:20:05.531Z,10.77
2022-10-03T17:22:44.564Z,10.72
2022-10-03T17:25:18.157Z,10.55
2022-10-03T17:27:50.290Z,10.56
2022-10-03T17:30:37.369Z,10.58
2022-10-03T17:33:35.034Z,10.59
2022-10-03T17:39:03.627Z,10.55
2022-10-03T17:41:36.216Z,10.63
2022-10-03T17:44:47.609Z,10.13
2022-10-03T17:47:40.355Z,9.58
2022-10-03T17:50:15.960Z,9.39
2022-10-03T17:52:46.550Z,9.23
2022-10-03T17:55:22.134Z,9.24
2022-10-03T17:57:55.145Z,9.16
2022-10-03T18:00:38.131Z,9.12
2022-10-03T18:03:10.437Z,9.08
2022-10-03T18:05:43.752Z,8.93
2022-10-03T18:08:19.035Z,8.80
2022-10-03T18:10:54.928Z,8.74
2022-10-03T18:13:47.536Z,8.62
2022-10-03T18:16:49.798Z,8.58
2022-10-03T18:19:23.337Z,8.52
2022-10-03T18:22:05.321Z,8.46
2022-10-03T18:24:40.521Z,8.46
2022-10-03T18:27:16.278Z,8.42
2022-10-03T18:30:06.069Z,8.38
2022-10-03T18:32:39.874Z,8.33
2022-10-03T18:35:34.577Z,8.33
2022-10-03T18:38:04.181Z,8.36
2022-10-03T18:40:47.555Z,8.36
2022-10-03T18:43:31.895Z,8.38
2022-10-03T18:46:21.761Z,8.35
2022-10-03T18:49:15.696Z,8.32
2022-10-03T18:51:47.145Z,8.37
2022-10-03T18:54:21.191Z,8.39
2022-10-03T18:57:04.185Z,8.38
2022-10-03T18:59:43.154Z,8.33
2022-10-03T19:02:22.250Z,8.25
2022-10-03T19:05:05.270Z,8.17
2022-10-03T19:07:42.992Z,8.06
2022-10-03T19:10:27.859Z,8.04
2022-10-03T19:13:17.856Z,7.97
2022-10-03T19:16:05.089Z,7.81
2022-10-03T19:19:05.925Z,7.69
2022-10-03T19:21:38.330Z,7.59
2022-10-03T19:24:13.308Z,7.58
2022-10-03T19:26:47.846Z,7.58
2022-10-03T19:29:23.572Z,7.52
2022-10-03T19:31:50.397Z,7.50
2022-10-03T19:34:38.456Z,7.50
2022-10-03T19:37:46.126Z,7.53
2022-10-03T19:40:42.379Z,7.40
2022-10-03T19:43:40.599Z,7.29
2022-10-03T19:46:16.428Z,7.29
2022-10-03T19:48:50.984Z,7.22
2022-10-03T19:51:25.579Z,7.17
2022-10-03T19:53:54.947Z,7.31
2022-10-03T19:56:25.084Z,7.29
2022-10-03T19:59:02.902Z,7.33
2022-10-03T20:01:48.503Z,7.32
2022-10-03T20:04:20.091Z,7.31
2022-10-03T20:06:50.026Z,7.32
2022-10-03T20:10:03.127Z,7.30
2022-10-03T20:12:36.888Z,7.31
2022-10-03T20:15:23.358Z,7.32
2022-10-03T20:17:55.541Z,7.28
2022-10-03T20:20:24.574Z,7.29
2022-10-03T20:22:54.825Z,7.28
2022-10-03T20:25:33.506Z,7.31
2022-10-03T20:28:05.747Z,7.27
2022-10-03T20:30:48.608Z,7.32
2022-10-03T20:33:27.641Z,7.31
2022-10-03T20:36:00.657Z,7.24
2022-10-03T20:38:45.635Z,7.28
2022-10-03T20:41:27.379Z,7.20
2022-10-03T20:44:04.497Z,7.23
2022-10-03T20:46:51.111Z,7.22
2022-10-03T20:49:27.882Z,7.18
2022-10-03T20:51:54.679Z,7.20
2022-10-03T20:54:24.659Z,7.18
2022-10-03T20:57:17.890Z,7.22
2022-10-03T21:00:11.585Z,7.13
2022-10-03T21:02:42.017Z,7.09
2022-10-03T21:05:23.990Z,7.17
2022-10-03T21:07:57.077Z,7.19
2022-10-03T21:10:36.448Z,7.19
2022-10-03T21:13:14.470Z,7.24
2022-10-03T21:15:59.147Z,7.20
2022-10-03T21:18:41.000Z,7.19
2022-10-03T21:21:10.645Z,7.18
2022-10-03T21:24:07.197Z,7.25
2022-10-03T21:26:42.293Z,7.29
2022-10-03T21:29:24.318Z,7.31
2022-10-03T21:32:01.048Z,7.31
2022-10-03T21:34:43.871Z,7.29
2022-10-03T21:37:17.049Z,7.30
2022-10-03T21:40:16.244Z,7.33
2022-10-03T21:43:16.655Z,7.31
2022-10-03T21:46:14.097Z,7.29
2022-10-03T21:49:15.054Z,7.33
2022-10-03T21:51:48.605Z,7.33
2022-10-03T21:54:33.258Z,7.34
2022-10-03T21:57:18.924Z,7.33
2022-10-03T22:00:27.342Z,7.40
2022-10-03T22:03:19.356Z,7.37
2022-10-03T22:05:52.168Z,7.43
2022-10-03T22:08:26.902Z,7.40
2022-10-03T22:11:31.222Z,7.35
2022-10-03T22:14:29.735Z,7.38
2022-10-03T22:17:02.527Z,7.35
2022-10-03T22:19:55.268Z,7.29
2022-10-03T22:22:24.735Z,7.26
2022-10-03T22:25:28.578Z,7.24
2022-10-03T22:28:13.285Z,7.14
2022-10-03T22:30:49.944Z,7.07
2022-10-03T22:33:20.872Z,6.98
2022-10-03T22:35:59.739Z,7.06
2022-10-03T22:38:29.078Z,7.05
2022-10-03T22:41:00.393Z,7.03
2022-10-03T22:43:28.775Z,7.04
2022-10-03T22:45:58.055Z,7.08
2022-10-03T22:48:29.625Z,7.10
2022-10-03T22:50:57.337Z,7.08
2022-10-03T22:53:31.481Z,7.09
2022-10-03T22:55:59.841Z,7.07
2022-10-03T22:58:29.570Z,7.07
2022-10-03T23:00:59.650Z,7.11
2022-10-03T23:03:32.249Z,7.08
2022-10-03T23:06:36.512Z,7.03
2022-10-03T23:09:31.627Z,7.02
2022-10-03T23:11:58.641Z,7.01
2022-10-03T23:14:38.505Z,6.97
2022-10-03T23:17:21.921Z,7.01
2022-10-03T23:20:18.206Z,7.01
2022-10-03T23:22:52.295Z,6.99
2022-10-03T23:25:28.395Z,7.01
2022-10-03T23:28:08.992Z,7.05
2022-10-03T23:30:35.756Z,7.03
2022-10-03T23:33:02.620Z,7.01
2022-10-03T23:35:42.772Z,7.10
2022-10-03T23:38:38.986Z,7.15
2022-10-03T23:41:10.433Z,7.12
2022-10-03T23:43:41.860Z,7.16
2022-10-03T23:46:15.699Z,7.14
2022-10-03T23:49:08.270Z,7.20
2022-10-03T23:51:36.526Z,7.21
2022-10-03T23:54:06.262Z,7.16
2022-10-03T23:56:45.871Z,7.12
2022-10-03T23:59:15.643Z,7.18
